createdAt,value
2019-03-22T00:01:25.417Z,98.74
2019-03-22T00:03:54.455Z,98.74
2019-03-22T00:06:23.421Z,98.55
2019-03-22T00:08:51.982Z,98.20
2019-03-22T00:11:23.426Z,97.75
2019-03-22T00:13:54.713Z,97.75
2019-03-22T00:16:23.705Z,98.43
2019-03-22T00:18:55.433Z,98.43
2019-03-22T00:21:24.085Z,98.34
2019-03-22T00:23:52.643Z,98.36
2019-03-22T00:26:23.891Z,98.15
2019-03-22T00:28:52.480Z,98.13
2019-03-22T00:31:23.982Z,98.53
2019-03-22T00:33:55.558Z,98.54
2019-03-22T00:36:24.147Z,98.54
2019-03-22T00:38:55.746Z,97.59
2019-03-22T00:41:27.054Z,98.37
2019-03-22T00:43:58.276Z,98.37
2019-03-22T00:46:29.861Z,98.93
2019-03-22T00:49:03.413Z,98.77
2019-03-22T00:51:35.018Z,98.77
2019-03-22T00:54:03.588Z,98.71
2019-03-22T00:56:32.173Z,99.26
2019-03-22T00:59:00.738Z,99.99
2019-03-22T01:01:29.318Z,99.73
2019-03-22T01:03:57.880Z,99.73
2019-03-22T01:06:28.661Z,100.00
2019-03-22T01:08:57.081Z,100.00
2019-03-22T01:11:28.393Z,100.00
2019-03-22T01:13:56.953Z,100.00
2019-03-22T01:16:25.541Z,100.00
2019-03-22T01:18:54.101Z,100.00
2019-03-22T01:21:22.693Z,100.00
2019-03-22T01:23:52.794Z,100.00
2019-03-22T01:26:21.383Z,100.00
2019-03-22T01:28:50.161Z,100.00
2019-03-22T01:31:18.784Z,100.00
2019-03-22T01:33:50.440Z,99.33
2019-03-22T01:36:19.345Z,98.16
2019-03-22T01:38:50.962Z,98.16
2019-03-22T01:41:22.694Z,97.65
2019-03-22T01:43:54.023Z,97.31
2019-03-22T01:46:22.614Z,98.25
2019-03-22T01:48:51.495Z,97.69
2019-03-22T01:51:23.043Z,97.46
2019-03-22T01:53:51.934Z,97.46
2019-03-22T01:56:20.522Z,97.21
2019-03-22T01:58:49.428Z,96.92
2019-03-22T02:01:20.990Z,96.72
2019-03-22T02:03:49.546Z,96.72
2019-03-22T02:06:18.130Z,96.68
2019-03-22T02:08:46.693Z,96.40
2019-03-22T02:11:20.465Z,96.77
2019-03-22T02:13:49.050Z,97.79
2019-03-22T02:16:20.812Z,97.79
2019-03-22T02:18:52.657Z,97.93
2019-03-22T02:21:21.251Z,98.17
2019-03-22T02:23:52.665Z,98.40
2019-03-22T02:26:23.940Z,98.56
2019-03-22T02:28:52.952Z,99.01
2019-03-22T02:31:21.607Z,99.34
2019-03-22T02:33:50.627Z,99.39
2019-03-22T02:36:19.222Z,99.31
2019-03-22T02:38:50.538Z,98.82
2019-03-22T02:41:19.139Z,98.90
2019-03-22T02:43:54.844Z,99.10
2019-03-22T02:46:23.631Z,99.31
2019-03-22T02:48:55.355Z,99.54
2019-03-22T02:51:23.966Z,99.49
2019-03-22T02:53:52.502Z,99.41
2019-03-22T02:56:21.100Z,98.89
2019-03-22T02:58:52.612Z,98.23
2019-03-22T03:01:21.465Z,97.79
2019-03-22T03:03:50.049Z,97.83
2019-03-22T03:06:18.629Z,98.09
2019-03-22T03:08:49.940Z,98.02
2019-03-22T03:11:21.460Z,97.48
2019-03-22T03:13:52.815Z,97.12
2019-03-22T03:16:24.334Z,96.77
2019-03-22T03:18:55.093Z,96.43
2019-03-22T03:21:23.663Z,96.12
2019-03-22T03:23:52.285Z,96.97
2019-03-22T03:26:20.850Z,97.81
2019-03-22T03:28:52.404Z,98.30
2019-03-22T03:31:20.999Z,98.43
2019-03-22T03:33:49.627Z,98.26
2019-03-22T03:36:18.210Z,98.06
2019-03-22T03:38:47.108Z,97.70
2019-03-22T03:41:15.670Z,96.80
2019-03-22T03:43:44.251Z,96.47
2019-03-22T03:46:15.481Z,96.51
2019-03-22T03:48:47.211Z,96.91
2019-03-22T03:51:18.467Z,96.57
2019-03-22T03:53:47.157Z,96.79
2019-03-22T03:56:15.678Z,96.90
2019-03-22T03:58:52.748Z,97.46
2019-03-22T04:01:17.489Z,97.49
2019-03-22T04:03:46.081Z,97.50
2019-03-22T04:06:14.642Z,97.82
2019-03-22T04:08:51.876Z,97.63
2019-03-22T04:11:20.431Z,97.54
2019-03-22T04:13:51.787Z,97.73
2019-03-22T04:16:23.483Z,97.95
2019-03-22T04:18:52.067Z,97.91
2019-03-22T04:21:20.755Z,97.91
2019-03-22T04:23:49.346Z,98.00
2019-03-22T04:26:17.905Z,97.97
2019-03-22T04:28:46.842Z,97.99
2019-03-22T04:31:19.514Z,97.84
2019-03-22T04:33:50.932Z,97.41
2019-03-22T04:36:19.506Z,97.16
2019-03-22T04:38:48.087Z,97.29
2019-03-22T04:41:16.647Z,97.36
2019-03-22T04:43:47.921Z,97.52
2019-03-22T04:46:18.014Z,97.53
2019-03-22T04:48:51.092Z,97.33
2019-03-22T04:51:19.801Z,97.21
2019-03-22T04:53:51.738Z,97.10
2019-03-22T04:56:22.134Z,96.48
2019-03-22T04:58:52.071Z,96.57
2019-03-22T05:01:22.883Z,97.23
2019-03-22T05:03:52.500Z,97.79
2019-03-22T05:06:22.593Z,97.90
2019-03-22T05:08:52.320Z,97.79
2019-03-22T05:11:24.825Z,97.67
2019-03-22T05:13:56.809Z,97.59
2019-03-22T05:16:29.934Z,97.24
2019-03-22T05:19:04.796Z,96.22
2019-03-22T05:21:35.119Z,95.90
2019-03-22T05:24:05.457Z,96.53
2019-03-22T05:26:37.515Z,97.08
2019-03-22T05:29:11.651Z,97.32
2019-03-22T05:31:43.269Z,97.62
2019-03-22T05:34:15.119Z,97.26
2019-03-22T05:36:43.692Z,97.50
2019-03-22T05:39:15.031Z,97.83
2019-03-22T05:41:49.522Z,98.12
2019-03-22T05:44:18.468Z,98.45
2019-03-22T05:46:50.053Z,98.53
2019-03-22T05:49:18.740Z,98.39
2019-03-22T05:51:50.523Z,98.03
2019-03-22T05:54:24.551Z,97.75
2019-03-22T05:56:53.189Z,97.49
2019-03-22T05:59:24.517Z,96.98
2019-03-22T06:01:56.198Z,96.29
2019-03-22T06:04:24.773Z,96.20
2019-03-22T06:06:53.778Z,96.47
2019-03-22T06:09:25.670Z,96.61
2019-03-22T06:11:55.089Z,95.92
2019-03-22T06:14:24.042Z,95.42
2019-03-22T06:16:55.518Z,94.82
2019-03-22T06:19:24.081Z,95.40
2019-03-22T06:21:55.899Z,95.78
2019-03-22T06:24:29.140Z,96.03
2019-03-22T06:26:57.721Z,96.46
2019-03-22T06:29:26.727Z,96.58
2019-03-22T06:31:58.650Z,96.83
2019-03-22T06:34:27.275Z,96.96
2019-03-22T06:36:55.861Z,96.88
2019-03-22T06:39:27.489Z,97.04
2019-03-22T06:41:59.036Z,97.25
2019-03-22T06:44:30.697Z,97.40
2019-03-22T06:46:59.268Z,97.51
2019-03-22T06:49:31.348Z,97.61
2019-03-22T06:52:01.924Z,97.03
2019-03-22T06:54:31.793Z,96.43
2019-03-22T06:57:00.747Z,96.41
2019-03-22T06:59:29.310Z,96.36
2019-03-22T07:01:57.888Z,96.34
2019-03-22T07:04:26.443Z,96.34
2019-03-22T07:06:57.886Z,96.34
2019-03-22T07:09:26.853Z,96.35
2019-03-22T07:11:58.152Z,96.42
2019-03-22T07:14:26.717Z,96.01
2019-03-22T07:16:55.299Z,95.82
2019-03-22T07:19:23.864Z,95.75
2019-03-22T07:21:55.418Z,95.53
2019-03-22T07:24:23.980Z,96.23
2019-03-22T07:26:52.577Z,96.27
2019-03-22T07:29:21.141Z,96.24
2019-03-22T07:31:50.779Z,96.63
2019-03-22T07:34:22.145Z,96.83
2019-03-22T07:36:56.740Z,96.48
2019-03-22T07:39:25.452Z,96.14
2019-03-22T07:41:54.391Z,96.64
2019-03-22T07:44:25.717Z,96.36
2019-03-22T07:46:57.469Z,95.99
2019-03-22T07:49:30.197Z,95.65
2019-03-22T07:52:01.941Z,95.90
2019-03-22T07:54:30.503Z,95.41
2019-03-22T07:56:59.090Z,94.47
2019-03-22T07:59:30.626Z,93.37
2019-03-22T08:02:02.152Z,93.60
2019-03-22T08:04:30.763Z,94.09
2019-03-22T08:07:02.363Z,94.11
2019-03-22T08:09:30.906Z,93.69
2019-03-22T08:11:59.732Z,93.77
2019-03-22T08:14:28.287Z,93.44
2019-03-22T08:17:08.726Z,92.83
2019-03-22T08:19:41.051Z,92.62
2019-03-22T08:22:09.637Z,92.35
2019-03-22T08:24:38.715Z,92.38
2019-03-22T08:27:13.840Z,91.83
2019-03-22T08:29:44.941Z,91.75
2019-03-22T08:32:14.350Z,92.14
2019-03-22T08:34:47.633Z,91.85
2019-03-22T08:37:15.811Z,91.66
2019-03-22T08:39:44.416Z,91.58
2019-03-22T08:42:14.527Z,91.57
2019-03-22T08:44:48.820Z,91.52
2019-03-22T08:47:32.810Z,91.31
2019-03-22T08:49:58.029Z,91.57
2019-03-22T08:52:29.639Z,91.76
2019-03-22T08:54:58.224Z,91.09
2019-03-22T08:57:29.583Z,91.30
2019-03-22T09:00:03.031Z,90.93
2019-03-22T09:02:56.540Z,90.46
2019-03-22T09:05:28.277Z,90.82
2019-03-22T09:10:46.821Z,90.10
2019-03-22T09:13:45.356Z,89.55
2019-03-22T09:16:17.298Z,89.57
2019-03-22T09:18:48.909Z,89.67
2019-03-22T09:21:17.439Z,89.53
2019-03-22T09:23:46.103Z,89.87
2019-03-22T09:26:20.003Z,89.72
2019-03-22T09:28:48.239Z,89.33
2019-03-22T09:31:16.888Z,90.02
2019-03-22T09:33:51.429Z,90.85
2019-03-22T09:36:22.740Z,90.71
2019-03-22T09:38:54.236Z,90.61
2019-03-22T09:41:22.774Z,90.04
2019-03-22T09:43:51.362Z,89.84
2019-03-22T09:46:19.937Z,90.90
2019-03-22T09:48:48.513Z,90.57
2019-03-22T09:51:19.871Z,90.78
2019-03-22T09:53:51.498Z,89.60
2019-03-22T09:56:20.137Z,89.08
2019-03-22T09:58:48.738Z,89.17
2019-03-22T10:01:23.849Z,88.18
2019-03-22T10:03:53.577Z,89.18
2019-03-22T10:06:28.597Z,88.93
2019-03-22T10:09:08.884Z,88.31
2019-03-22T10:11:40.488Z,88.57
2019-03-22T10:14:13.840Z,88.65
2019-03-22T10:16:47.459Z,88.87
2019-03-22T10:19:24.669Z,88.38
2019-03-22T10:21:59.328Z,87.30
2019-03-22T10:27:13.678Z,86.86
2019-03-22T10:32:44.153Z,88.60
2019-03-22T10:35:25.547Z,88.80
2019-03-22T10:37:46.598Z,88.69
2019-03-22T10:40:15.317Z,88.88
2019-03-22T10:42:43.943Z,88.74
2019-03-22T10:45:15.156Z,88.49
2019-03-22T10:47:43.753Z,88.09
2019-03-22T10:50:13.937Z,88.17
2019-03-22T10:52:42.550Z,87.24
2019-03-22T10:55:29.264Z,87.05
2019-03-22T10:57:47.612Z,86.64
2019-03-22T11:00:18.005Z,86.14
2019-03-22T11:02:46.743Z,86.44
2019-03-22T11:05:18.352Z,87.21
2019-03-22T11:07:46.910Z,86.47
2019-03-22T11:10:18.298Z,87.26
2019-03-22T11:12:46.867Z,87.56
2019-03-22T11:15:16.301Z,88.33
2019-03-22T11:17:44.947Z,87.97
2019-03-22T11:20:16.324Z,88.12
2019-03-22T11:22:47.958Z,87.40
2019-03-22T11:25:16.699Z,87.87
2019-03-22T11:27:47.394Z,86.99
2019-03-22T11:30:18.647Z,86.68
2019-03-22T11:32:47.386Z,86.88
2019-03-22T11:35:16.502Z,86.86
2019-03-22T11:37:45.061Z,87.09
2019-03-22T11:40:15.799Z,86.19
2019-03-22T11:42:44.362Z,85.71
2019-03-22T11:45:21.118Z,85.74
2019-03-22T11:47:49.743Z,84.83
2019-03-22T11:50:21.014Z,86.04
2019-03-22T11:52:49.981Z,85.31
2019-03-22T11:55:18.688Z,84.41
2019-03-22T11:57:48.079Z,83.00
2019-03-22T12:00:24.691Z,81.61
2019-03-22T12:02:53.352Z,82.06
2019-03-22T12:05:22.925Z,82.57
2019-03-22T12:07:51.804Z,82.34
2019-03-22T12:10:23.646Z,81.94
2019-03-22T12:12:55.656Z,81.47
2019-03-22T12:15:27.024Z,80.56
2019-03-22T12:17:55.616Z,80.54
2019-03-22T12:20:26.937Z,80.06
2019-03-22T12:22:55.530Z,79.55
2019-03-22T12:25:25.742Z,78.97
2019-03-22T12:27:54.320Z,80.52
2019-03-22T12:30:26.176Z,79.62
2019-03-22T12:32:54.769Z,78.28
2019-03-22T12:35:23.326Z,79.31
2019-03-22T12:37:51.907Z,79.30
2019-03-22T12:40:24.014Z,79.50
2019-03-22T12:42:56.656Z,80.82
2019-03-22T12:45:32.738Z,80.51
2019-03-22T12:48:01.337Z,79.64
2019-03-22T12:50:35.508Z,79.29
2019-03-22T12:53:07.062Z,80.75
2019-03-22T12:55:38.820Z,80.16
2019-03-22T12:58:07.405Z,78.93
2019-03-22T13:00:36.046Z,78.20
2019-03-22T13:03:05.063Z,78.41
2019-03-22T13:05:33.801Z,78.13
2019-03-22T13:08:03.496Z,77.39
2019-03-22T13:10:32.226Z,76.13
2019-03-22T13:13:03.924Z,77.46
2019-03-22T13:15:32.878Z,78.99
2019-03-22T13:18:04.711Z,77.85
2019-03-22T13:20:33.278Z,77.96
2019-03-22T13:26:09.279Z,76.36
2019-03-22T13:28:41.883Z,76.11
2019-03-22T13:31:12.996Z,76.61
2019-03-22T13:33:42.188Z,76.20
2019-03-22T13:36:13.915Z,76.15
2019-03-22T13:38:45.504Z,76.21
2019-03-22T13:41:14.228Z,77.07
2019-03-22T13:43:45.532Z,76.50
2019-03-22T13:46:14.095Z,76.72
2019-03-22T13:48:45.851Z,75.20
2019-03-22T13:51:17.526Z,75.74
2019-03-22T13:53:46.120Z,75.66
2019-03-22T13:56:14.680Z,76.22
2019-03-22T13:58:49.229Z,76.14
2019-03-22T14:01:17.797Z,75.31
2019-03-22T14:03:49.308Z,75.57
2019-03-22T14:06:21.114Z,76.47
2019-03-22T14:08:50.098Z,75.84
2019-03-22T14:11:36.118Z,75.60
2019-03-22T14:17:05.343Z,76.43
2019-03-22T14:19:36.908Z,77.32
2019-03-22T14:22:08.471Z,76.15
2019-03-22T14:24:41.382Z,75.99
2019-03-22T14:27:09.889Z,75.62
2019-03-22T14:29:41.544Z,76.05
2019-03-22T14:32:12.220Z,75.64
2019-03-22T14:34:46.670Z,74.58
2019-03-22T14:37:18.213Z,75.21
2019-03-22T14:39:49.656Z,75.85
2019-03-22T14:42:18.223Z,76.15
2019-03-22T14:44:50.243Z,75.51
2019-03-22T14:47:21.756Z,74.10
2019-03-22T14:49:50.344Z,75.07
2019-03-22T14:52:21.573Z,73.31
2019-03-22T14:54:52.906Z,72.07
2019-03-22T14:57:24.202Z,71.78
2019-03-22T14:59:58.938Z,71.07
2019-03-22T15:02:25.809Z,71.03
2019-03-22T15:04:57.773Z,73.15
2019-03-22T15:07:29.357Z,71.62
2019-03-22T15:09:58.022Z,71.30
2019-03-22T15:12:29.363Z,72.13
2019-03-22T15:15:05.357Z,72.32
2019-03-22T15:17:47.300Z,70.69
2019-03-22T15:20:38.837Z,70.51
2019-03-22T15:23:13.485Z,71.25
2019-03-22T15:26:04.236Z,71.60
2019-03-22T15:28:54.998Z,71.81
2019-03-22T15:31:44.163Z,71.69
2019-03-22T15:34:22.881Z,71.07
2019-03-22T15:37:04.760Z,71.46
2019-03-22T15:39:38.067Z,70.82
2019-03-22T15:42:06.792Z,70.14
2019-03-22T15:44:35.387Z,69.58
2019-03-22T15:47:07.305Z,70.31
2019-03-22T15:49:35.861Z,71.68
2019-03-22T15:52:04.529Z,72.43
2019-03-22T15:54:33.079Z,72.73
2019-03-22T15:57:01.764Z,73.49
2019-03-22T15:59:32.995Z,73.81
2019-03-22T16:02:01.652Z,73.54
2019-03-22T16:04:32.902Z,74.65
2019-03-22T16:07:04.887Z,74.60
2019-03-22T16:09:33.826Z,75.86
2019-03-22T16:12:02.497Z,76.34
2019-03-22T16:14:31.125Z,77.06
2019-03-22T16:17:00.135Z,77.99
2019-03-22T16:19:28.693Z,78.41
2019-03-22T16:22:00.510Z,79.51
2019-03-22T16:24:29.065Z,79.49
2019-03-22T16:26:57.653Z,80.55
2019-03-22T16:29:28.957Z,81.04
2019-03-22T16:31:58.365Z,81.41
2019-03-22T16:34:35.894Z,81.81
2019-03-22T16:37:05.023Z,82.42
2019-03-22T16:39:36.291Z,83.01
2019-03-22T16:42:05.023Z,82.49
2019-03-22T16:44:36.260Z,83.19
2019-03-22T16:47:07.646Z,83.30
2019-03-22T16:49:36.214Z,83.47
2019-03-22T16:52:07.858Z,83.45
2019-03-22T16:54:39.131Z,83.83
2019-03-22T16:57:07.719Z,84.09
2019-03-22T16:59:39.214Z,84.40
2019-03-22T17:02:07.939Z,84.81
2019-03-22T17:04:39.570Z,85.30
2019-03-22T17:07:08.741Z,85.71
2019-03-22T17:09:40.297Z,85.87
2019-03-22T17:12:11.526Z,86.01
2019-03-22T17:14:42.810Z,86.32
2019-03-22T17:17:14.089Z,86.71
2019-03-22T17:19:42.649Z,87.31
2019-03-22T17:22:13.909Z,87.78
2019-03-22T17:24:45.208Z,87.81
2019-03-22T17:27:16.628Z,88.34
2019-03-22T17:29:47.922Z,88.79
2019-03-22T17:32:16.907Z,88.97
2019-03-22T17:34:48.633Z,89.67
2019-03-22T17:37:17.251Z,90.16
2019-03-22T17:39:45.824Z,90.59
2019-03-22T17:42:17.235Z,90.99
2019-03-22T17:44:48.500Z,91.16
2019-03-22T17:47:20.186Z,91.44
2019-03-22T17:49:51.492Z,91.92
2019-03-22T17:52:20.069Z,92.15
2019-03-22T17:54:48.626Z,92.21
2019-03-22T17:57:18.898Z,92.28
2019-03-22T17:59:50.661Z,92.40
2019-03-22T18:02:24.844Z,92.53
2019-03-22T18:04:56.780Z,92.74
2019-03-22T18:07:28.017Z,93.01
2019-03-22T18:10:02.968Z,93.13
2019-03-22T18:12:34.723Z,93.46
2019-03-22T18:15:04.048Z,93.89
2019-03-22T18:17:32.605Z,94.05
2019-03-22T18:20:01.179Z,94.03
2019-03-22T18:22:30.509Z,94.01
2019-03-22T18:24:59.205Z,94.19
2019-03-22T18:27:30.702Z,94.48
2019-03-22T18:30:02.083Z,94.63
2019-03-22T18:32:30.644Z,94.94
2019-03-22T18:34:59.253Z,95.52
2019-03-22T18:37:27.820Z,95.89
2019-03-22T18:39:58.032Z,96.25
2019-03-22T18:42:26.594Z,96.89
2019-03-22T18:44:55.185Z,97.06
2019-03-22T18:47:23.745Z,97.14
2019-03-22T18:49:55.326Z,97.49
2019-03-22T18:52:26.906Z,97.72
2019-03-22T18:55:14.827Z,98.03
2019-03-22T18:57:46.213Z,98.61
2019-03-22T19:00:17.276Z,98.95
2019-03-22T19:02:45.839Z,99.12
2019-03-22T19:05:17.456Z,99.15
2019-03-22T19:07:48.794Z,99.17
2019-03-22T19:10:20.377Z,99.14
2019-03-22T19:12:50.004Z,99.22
2019-03-22T19:15:21.508Z,99.20
2019-03-22T19:17:53.017Z,99.32
2019-03-22T19:20:22.027Z,99.31
2019-03-22T19:22:59.489Z,99.31
2019-03-22T19:25:31.015Z,99.48
2019-03-22T19:28:02.510Z,99.59
2019-03-22T19:30:34.284Z,99.62
2019-03-22T19:33:02.865Z,99.57
2019-03-22T19:35:35.751Z,99.62
2019-03-22T19:38:05.315Z,99.61
2019-03-22T19:40:35.426Z,99.69
2019-03-22T19:43:06.538Z,99.74
2019-03-22T19:45:47.230Z,99.82
2019-03-22T19:48:15.889Z,99.83
2019-03-22T19:53:47.703Z,99.87
2019-03-22T19:56:25.573Z,99.86
2019-03-22T19:59:03.261Z,100.00
2019-03-22T20:01:35.178Z,99.95
2019-03-22T20:04:23.110Z,100.00
2019-03-22T20:06:54.351Z,100.00
2019-03-22T20:09:25.943Z,100.00
2019-03-22T20:11:57.488Z,100.00
2019-03-22T20:14:29.132Z,100.00
2019-03-22T20:17:03.439Z,100.00
2019-03-22T20:19:32.812Z,100.00
2019-03-22T20:22:06.070Z,100.00
2019-03-22T20:24:37.420Z,100.00
2019-03-22T20:27:09.246Z,100.00
2019-03-22T20:29:43.883Z,100.00
2019-03-22T20:32:15.893Z,100.00
2019-03-22T20:34:47.208Z,100.00
2019-03-22T20:37:15.806Z,100.00
2019-03-22T20:39:47.285Z,100.00
2019-03-22T20:42:18.858Z,100.00
2019-03-22T20:44:47.426Z,100.00
2019-03-22T20:47:19.107Z,100.00
2019-03-22T20:49:50.468Z,100.00
2019-03-22T20:52:22.188Z,100.00
2019-03-22T20:54:53.831Z,100.00
2019-03-22T20:57:28.313Z,100.00
2019-03-22T20:59:56.888Z,100.00
2019-03-22T21:02:28.214Z,100.00
2019-03-22T21:04:56.782Z,100.00
2019-03-22T21:07:25.389Z,100.00
2019-03-22T21:09:54.388Z,100.00
2019-03-22T21:12:22.936Z,100.00
2019-03-22T21:14:54.973Z,100.00
2019-03-22T21:17:26.646Z,100.00
2019-03-22T21:19:55.578Z,100.00
2019-03-22T21:22:26.869Z,100.00
2019-03-22T21:24:58.550Z,100.00
2019-03-22T21:27:30.535Z,100.00
2019-03-22T21:29:59.109Z,100.00
2019-03-22T21:32:28.044Z,100.00
2019-03-22T21:34:59.516Z,100.00
2019-03-22T21:37:34.185Z,100.00
2019-03-22T21:40:07.562Z,100.00
2019-03-22T21:42:39.190Z,100.00
2019-03-22T21:45:09.046Z,100.00
2019-03-22T21:47:43.816Z,100.00
2019-03-22T21:50:16.087Z,100.00
2019-03-22T21:52:47.461Z,100.00
2019-03-22T21:55:19.072Z,100.00
2019-03-22T21:57:47.671Z,100.00
2019-03-22T22:00:16.480Z,100.00
2019-03-22T22:02:45.078Z,100.00
2019-03-22T22:05:13.633Z,100.00
2019-03-22T22:07:44.101Z,100.00
2019-03-22T22:10:15.482Z,100.00
2019-03-22T22:12:44.081Z,100.00
2019-03-22T22:15:15.666Z,100.00
2019-03-22T22:17:44.630Z,100.00
2019-03-22T22:20:16.102Z,100.00
2019-03-22T22:22:44.693Z,100.00
2019-03-22T22:25:16.591Z,100.00
2019-03-22T22:27:45.514Z,100.00
2019-03-22T22:30:14.209Z,100.00
2019-03-22T22:32:43.136Z,100.00
2019-03-22T22:35:11.776Z,100.00
2019-03-22T22:37:40.371Z,100.00
2019-03-22T22:40:13.529Z,100.00
2019-03-22T22:42:42.535Z,100.00
2019-03-22T22:45:26.008Z,100.00
2019-03-22T22:47:54.603Z,100.00
2019-03-22T22:50:23.169Z,100.00
2019-03-22T22:52:51.755Z,100.00
2019-03-22T22:55:20.336Z,100.00
2019-03-22T22:57:48.933Z,100.00
2019-03-22T23:00:18.542Z,100.00
2019-03-22T23:02:47.137Z,100.00
2019-03-22T23:05:15.698Z,100.00
2019-03-22T23:07:44.296Z,100.00
2019-03-22T23:10:12.997Z,100.00
2019-03-22T23:12:44.583Z,100.00
2019-03-22T23:15:14.759Z,100.00
2019-03-22T23:17:46.095Z,100.00
2019-03-22T23:20:14.657Z,100.00
2019-03-22T23:22:46.257Z,100.00
2019-03-22T23:25:14.814Z,100.00
2019-03-22T23:27:43.403Z,100.00
2019-03-22T23:30:13.109Z,100.00
2019-03-22T23:32:44.929Z,100.00
2019-03-22T23:35:13.567Z,100.00
2019-03-22T23:37:43.648Z,100.00
2019-03-22T23:40:13.747Z,100.00
2019-03-22T23:42:43.823Z,100.00
2019-03-22T23:45:15.939Z,100.00
2019-03-22T23:47:44.844Z,100.00
2019-03-22T23:50:13.702Z,100.00
2019-03-22T23:52:43.786Z,100.00
2019-03-22T23:55:12.537Z,100.00
2019-03-22T23:57:42.841Z,100.00
